createdAt,value
2022-09-15T00:04:27.513Z,1.00
2022-09-15T00:09:28.873Z,1.10
2022-09-15T00:14:30.248Z,0.82
2022-09-15T00:19:31.604Z,1.00
2022-09-15T00:24:32.985Z,0.65
2022-09-15T00:29:35.719Z,1.10
2022-09-15T00:34:37.077Z,1.10
2022-09-15T00:39:38.566Z,1.05
2022-09-15T00:44:58.713Z,1.00
2022-09-15T00:50:03.692Z,0.90
2022-09-15T00:55:07.021Z,0.80
2022-09-15T01:00:13.288Z,1.00
2022-09-15T01:05:16.406Z,1.13
2022-09-15T01:10:22.377Z,1.00
2022-09-15T01:15:28.585Z,1.00
2022-09-15T01:20:54.661Z,1.00
2022-09-15T01:26:07.991Z,1.00
2022-09-15T01:31:15.677Z,1.10
2022-09-15T01:36:22.978Z,1.10
2022-09-15T01:41:27.556Z,1.20
2022-09-15T01:46:31.257Z,1.30
2022-09-15T01:51:32.613Z,1.10
2022-09-15T01:56:33.986Z,1.30
2022-09-15T02:01:49.479Z,1.10
2022-09-15T02:12:12.208Z,1.13
2022-09-15T02:17:15.398Z,1.20
2022-09-15T02:22:30.998Z,1.05
2022-09-15T02:27:37.352Z,0.90
2022-09-15T02:32:40.734Z,1.20
2022-09-15T02:37:42.173Z,1.48
2022-09-15T02:42:52.329Z,1.40
2022-09-15T02:47:53.685Z,1.27
2022-09-15T02:52:55.444Z,1.08
2022-09-15T02:57:57.205Z,1.10
2022-09-15T03:02:58.568Z,1.00
2022-09-15T03:07:59.932Z,0.98
2022-09-15T03:13:01.290Z,1.20
2022-09-15T03:18:02.676Z,1.10
2022-09-15T03:23:04.120Z,1.30
2022-09-15T03:28:05.477Z,1.30
2022-09-15T03:33:06.849Z,1.35
2022-09-15T03:38:08.230Z,1.35
2022-09-15T03:43:10.349Z,1.35
2022-09-15T03:48:11.712Z,1.23
2022-09-15T03:53:13.085Z,1.30
2022-09-15T03:58:14.445Z,1.20
2022-09-15T04:03:15.826Z,1.20
2022-09-15T04:08:17.189Z,1.45
2022-09-15T04:13:18.584Z,1.40
2022-09-15T04:18:19.952Z,1.27
2022-09-15T04:23:21.317Z,1.10
2022-09-15T04:28:23.907Z,1.35
2022-09-15T04:33:25.284Z,1.65
2022-09-15T04:38:26.649Z,1.40
2022-09-15T04:43:28.368Z,1.17
2022-09-15T04:48:30.282Z,1.40
2022-09-15T04:53:31.697Z,1.40
2022-09-15T04:58:42.549Z,1.35
2022-09-15T05:03:44.138Z,1.25
2022-09-15T05:08:52.689Z,1.45
2022-09-15T05:13:54.305Z,1.50
2022-09-15T05:18:57.690Z,1.42
2022-09-15T05:23:59.072Z,1.67
2022-09-15T05:29:00.476Z,1.65
2022-09-15T05:34:04.217Z,1.40
2022-09-15T05:39:05.576Z,1.98
2022-09-15T05:44:06.965Z,2.00
2022-09-15T05:49:08.700Z,1.77
2022-09-15T05:54:10.056Z,1.80
2022-09-15T05:59:11.414Z,1.88
2022-09-15T06:04:12.768Z,2.05
2022-09-15T06:09:14.124Z,1.92
2022-09-15T06:14:15.548Z,2.03
2022-09-15T06:19:16.953Z,1.90
2022-09-15T06:24:18.360Z,2.10
2022-09-15T06:29:19.883Z,2.35
2022-09-15T06:34:21.276Z,2.35
2022-09-15T06:39:22.917Z,2.30
2022-09-15T06:44:24.306Z,1.80
2022-09-15T06:49:25.935Z,1.63
2022-09-15T06:54:27.308Z,1.13
2022-09-15T06:59:28.673Z,4.60
2022-09-15T07:04:30.065Z,3.00
2022-09-15T07:09:31.636Z,2.30
2022-09-15T07:14:32.992Z,2.60
2022-09-15T07:19:34.348Z,2.45
2022-09-15T07:24:35.708Z,1.80
2022-09-15T07:29:38.654Z,1.55
2022-09-15T07:34:40.017Z,1.40
2022-09-15T07:39:41.385Z,1.35
2022-09-15T07:44:42.743Z,1.42
2022-09-15T07:49:44.117Z,1.20
2022-09-15T07:54:45.480Z,1.15
2022-09-15T07:59:46.842Z,1.20
2022-09-15T08:04:48.264Z,0.90
2022-09-15T08:09:49.632Z,0.82
2022-09-15T08:14:50.986Z,0.90
2022-09-15T08:19:52.612Z,0.90
2022-09-15T08:24:53.978Z,1.00
2022-09-15T08:29:55.362Z,0.93
2022-09-15T08:34:56.759Z,0.90
2022-09-15T08:39:58.158Z,1.10
2022-09-15T08:45:00.586Z,1.25
2022-09-15T08:50:20.700Z,1.30
2022-09-15T08:55:37.458Z,1.40
2022-09-15T09:00:39.317Z,1.10
2022-09-15T09:05:47.753Z,1.50
2022-09-15T09:10:56.745Z,1.60
2022-09-15T09:16:05.574Z,1.27
2022-09-15T09:21:16.927Z,1.40
2022-09-15T09:26:18.315Z,1.58
2022-09-15T09:31:21.519Z,1.30
2022-09-15T09:36:22.968Z,1.50
2022-09-15T09:41:35.463Z,1.40
2022-09-15T09:46:36.908Z,1.58
2022-09-15T09:51:47.996Z,1.33
2022-09-15T09:56:49.541Z,1.10
2022-09-15T10:02:16.172Z,1.23
2022-09-15T10:07:22.891Z,1.20
2022-09-15T10:12:44.440Z,1.02
2022-09-15T10:17:45.991Z,0.80
2022-09-15T10:22:47.365Z,0.90
2022-09-15T10:28:13.982Z,0.80
2022-09-15T10:33:24.218Z,1.33
2022-09-15T10:38:41.175Z,1.30
2022-09-15T10:44:09.620Z,1.13
2022-09-15T10:49:33.474Z,0.88
2022-09-15T10:55:01.314Z,1.10
2022-09-15T11:00:09.740Z,0.77
2022-09-15T11:05:32.236Z,1.10
2022-09-15T11:10:59.834Z,0.90
2022-09-15T11:16:19.987Z,0.85
2022-09-15T11:21:26.746Z,1.00
2022-09-15T11:26:32.436Z,0.80
2022-09-15T11:36:47.437Z,1.02
2022-09-15T11:41:56.169Z,1.17
2022-09-15T11:47:16.901Z,1.25
2022-09-15T11:52:36.457Z,0.90
2022-09-15T11:57:41.576Z,1.00
2022-09-15T12:02:48.807Z,0.80
2022-09-15T12:07:53.240Z,0.90
2022-09-15T12:12:54.638Z,0.85
2022-09-15T12:18:27.301Z,1.10
2022-09-15T12:23:40.538Z,0.95
2022-09-15T12:28:57.779Z,0.90
2022-09-15T12:34:04.588Z,0.90
2022-09-15T12:39:28.801Z,1.00
2022-09-15T12:44:34.708Z,0.80
2022-09-15T12:49:41.872Z,0.80
2022-09-15T12:54:43.425Z,0.98
2022-09-15T12:59:44.782Z,0.80
2022-09-15T13:04:57.400Z,0.95
2022-09-15T13:10:26.945Z,1.00
2022-09-15T13:15:28.349Z,0.90
2022-09-15T13:20:31.583Z,1.15
2022-09-15T13:25:32.949Z,1.10
2022-09-15T13:31:01.800Z,1.00
2022-09-15T13:36:15.058Z,0.85
2022-09-15T13:41:34.670Z,1.13
2022-09-15T13:47:03.939Z,1.20
2022-09-15T13:52:23.249Z,1.05
2022-09-15T13:58:54.227Z,1.33
2022-09-15T14:02:49.639Z,1.02
2022-09-15T14:08:01.254Z,0.80
2022-09-15T14:13:02.992Z,0.80
2022-09-15T14:18:04.412Z,1.00
2022-09-15T14:23:14.698Z,1.02
2022-09-15T14:28:18.844Z,1.17
2022-09-15T14:33:20.356Z,1.35
2022-09-15T14:38:22.738Z,1.00
2022-09-15T14:43:30.246Z,0.90
2022-09-15T14:48:31.840Z,1.02
2022-09-15T14:53:35.267Z,0.93
2022-09-15T14:58:44.506Z,1.20
2022-09-15T15:04:05.856Z,1.02
2022-09-15T15:09:21.121Z,0.98
2022-09-15T15:19:37.481Z,0.73
2022-09-15T15:24:48.492Z,0.82
2022-09-15T15:29:49.849Z,0.70
2022-09-15T15:34:55.645Z,1.10
2022-09-15T15:39:58.011Z,1.05
2022-09-15T15:45:09.385Z,1.10
2022-09-15T15:50:14.848Z,0.90
2022-09-15T15:55:18.212Z,0.90
2022-09-15T16:00:31.624Z,1.20
2022-09-15T16:05:33.085Z,1.10
2022-09-15T16:10:39.003Z,1.20
2022-09-15T16:15:40.360Z,0.80
2022-09-15T16:20:41.812Z,0.70
2022-09-15T16:25:57.490Z,1.20
2022-09-15T16:30:59.197Z,1.00
2022-09-15T16:36:06.754Z,0.80
2022-09-15T16:41:15.663Z,1.00
2022-09-15T16:46:17.377Z,0.80
2022-09-15T16:51:28.837Z,1.00
2022-09-15T16:56:32.673Z,1.00
2022-09-15T17:01:34.059Z,0.80
2022-09-15T17:06:35.461Z,0.82
2022-09-15T17:11:36.820Z,1.00
2022-09-15T17:16:38.190Z,0.77
2022-09-15T17:21:39.545Z,0.80
2022-09-15T17:26:40.913Z,0.85
2022-09-15T17:31:42.336Z,0.95
2022-09-15T17:36:43.752Z,1.10
2022-09-15T17:41:46.941Z,0.80
2022-09-15T17:46:48.337Z,1.30
2022-09-15T17:51:49.859Z,1.25
2022-09-15T17:56:51.232Z,1.02
2022-09-15T18:01:52.694Z,1.20
2022-09-15T18:06:54.267Z,0.93
2022-09-15T18:11:55.629Z,1.20
2022-09-15T18:16:57.040Z,1.30
2022-09-15T18:21:58.396Z,1.20
2022-09-15T18:26:59.765Z,1.30
2022-09-15T18:32:02.945Z,1.10
2022-09-15T18:37:04.437Z,0.90
2022-09-15T18:42:05.844Z,1.10
2022-09-15T18:47:07.206Z,1.08
2022-09-15T18:52:08.561Z,0.98
2022-09-15T18:57:09.920Z,1.20
2022-09-15T19:02:11.874Z,1.00
2022-09-15T19:07:13.357Z,1.00
2022-09-15T19:12:14.743Z,1.10
2022-09-15T19:17:16.193Z,1.10
2022-09-15T19:22:17.549Z,1.10
2022-09-15T19:27:18.924Z,1.00
2022-09-15T19:32:20.908Z,1.20
2022-09-15T19:37:22.404Z,0.90
2022-09-15T19:42:23.773Z,1.10
2022-09-15T19:47:25.136Z,0.98
2022-09-15T19:52:27.446Z,1.13
2022-09-15T19:57:28.841Z,0.82
2022-09-15T20:02:30.279Z,1.02
2022-09-15T20:07:31.795Z,0.77
2022-09-15T20:12:33.164Z,0.82
2022-09-15T20:17:34.571Z,1.00
2022-09-15T20:22:35.988Z,0.88
2022-09-15T20:27:38.069Z,1.00
2022-09-15T20:32:39.590Z,1.00
2022-09-15T20:37:41.756Z,0.90
2022-09-15T20:42:43.125Z,0.95
2022-09-15T20:47:44.481Z,0.80
2022-09-15T20:52:45.844Z,0.88
2022-09-15T20:57:47.588Z,0.70
2022-09-15T21:02:51.853Z,0.60
2022-09-15T21:07:53.229Z,0.80
2022-09-15T21:12:54.977Z,0.68
2022-09-15T21:17:56.402Z,0.80
2022-09-15T21:22:57.757Z,0.90
2022-09-15T21:27:59.412Z,0.90
2022-09-15T21:33:00.984Z,0.82
2022-09-15T21:38:02.345Z,0.60
2022-09-15T21:43:03.697Z,0.70
2022-09-15T21:48:05.060Z,0.50
2022-09-15T21:53:07.332Z,0.93
2022-09-15T21:58:08.765Z,0.90
2022-09-15T22:03:10.780Z,0.55
2022-09-15T22:08:15.955Z,0.70
2022-09-15T22:13:17.330Z,0.77
2022-09-15T22:18:18.684Z,0.70
2022-09-15T22:23:20.050Z,0.60
2022-09-15T22:28:21.425Z,0.45
2022-09-15T22:33:22.817Z,0.60
2022-09-15T22:38:24.624Z,0.75
2022-09-15T22:43:25.985Z,0.88
2022-09-15T22:48:27.721Z,0.70
2022-09-15T22:53:29.080Z,0.75
2022-09-15T22:58:31.693Z,0.75
2022-09-15T23:03:33.162Z,0.50
2022-09-15T23:08:34.537Z,0.60
2022-09-15T23:13:36.066Z,0.77
2022-09-15T23:18:37.424Z,0.50
2022-09-15T23:23:39.518Z,0.60
2022-09-15T23:28:40.889Z,0.70
2022-09-15T23:33:42.321Z,0.63
2022-09-15T23:38:44.161Z,0.57
2022-09-15T23:43:45.805Z,0.70
2022-09-15T23:48:47.164Z,0.52
2022-09-15T23:53:48.596Z,0.63
2022-09-15T23:58:49.957Z,0.60
